createdAt,value
2022-10-26T00:00:05.690Z,1.80
2022-10-26T00:01:05.903Z,1.60
2022-10-26T00:02:04.491Z,1.90
2022-10-26T00:03:04.688Z,1.90
2022-10-26T00:04:04.985Z,1.10
2022-10-26T00:05:07.157Z,1.70
2022-10-26T00:06:08.343Z,1.60
2022-10-26T00:07:05.848Z,1.60
2022-10-26T00:08:06.171Z,1.70
2022-10-26T00:09:06.487Z,1.40
2022-10-26T00:10:08.658Z,2.30
2022-10-26T00:11:08.836Z,1.80
2022-10-26T00:12:09.025Z,1.70
2022-10-26T00:13:09.193Z,2.00
2022-10-26T00:14:09.881Z,2.00
2022-10-26T00:15:08.260Z,1.70
2022-10-26T00:16:10.458Z,1.60
2022-10-26T00:17:10.625Z,1.90
2022-10-26T00:18:10.805Z,1.60
2022-10-26T00:19:09.434Z,2.20
2022-10-26T00:20:09.747Z,1.70
2022-10-26T00:21:11.925Z,1.80
2022-10-26T00:22:12.085Z,1.50
2022-10-26T00:23:12.266Z,1.60
2022-10-26T00:24:12.487Z,1.50
2022-10-26T00:25:11.183Z,1.50
2022-10-26T00:26:13.365Z,1.70
2022-10-26T00:27:13.550Z,1.50
2022-10-26T00:28:12.061Z,1.70
2022-10-26T00:29:12.363Z,1.80
2022-10-26T00:30:14.550Z,1.50
2022-10-26T00:31:14.726Z,2.00
2022-10-26T00:32:13.267Z,1.60
2022-10-26T00:33:13.561Z,1.60
2022-10-26T00:34:13.869Z,2.00
2022-10-26T00:35:23.012Z,1.90
2022-10-26T00:36:17.306Z,1.70
2022-10-26T00:37:16.467Z,1.70
2022-10-26T00:38:16.649Z,2.00
2022-10-26T00:39:16.830Z,1.80
2022-10-26T00:40:17.522Z,2.00
2022-10-26T00:41:17.697Z,1.70
2022-10-26T00:42:17.879Z,1.90
2022-10-26T00:43:18.040Z,2.00
2022-10-26T00:44:18.717Z,1.90
2022-10-26T00:45:18.909Z,2.20
2022-10-26T00:46:20.192Z,2.20
2022-10-26T00:47:19.349Z,1.90
2022-10-26T00:48:17.961Z,1.70
2022-10-26T00:49:20.197Z,1.90
2022-10-26T00:50:20.319Z,2.30
2022-10-26T00:51:20.519Z,2.40
2022-10-26T00:52:20.724Z,2.30
2022-10-26T00:53:21.406Z,2.20
2022-10-26T00:54:21.580Z,2.00
2022-10-26T00:55:20.093Z,2.40
2022-10-26T00:56:20.405Z,2.70
2022-10-26T00:57:22.596Z,2.30
2022-10-26T00:58:22.767Z,2.00
2022-10-26T00:59:21.250Z,2.20
2022-10-26T01:00:21.558Z,2.20
2022-10-26T01:01:21.900Z,1.90
2022-10-26T01:02:24.055Z,1.80
2022-10-26T01:03:24.277Z,2.40
2022-10-26T01:04:22.663Z,2.30
2022-10-26T01:05:22.969Z,2.10
2022-10-26T01:06:23.289Z,2.40
2022-10-26T01:07:23.599Z,2.20
2022-10-26T01:08:27.235Z,2.30
2022-10-26T01:09:24.140Z,2.10
2022-10-26T01:10:26.321Z,2.60
2022-10-26T01:11:26.522Z,2.20
2022-10-26T01:12:25.052Z,2.50
2022-10-26T01:13:27.203Z,2.40
2022-10-26T01:14:27.382Z,2.30
2022-10-26T01:15:26.012Z,2.20
2022-10-26T01:16:26.369Z,2.40
2022-10-26T01:17:26.636Z,2.10
2022-10-26T01:18:26.913Z,2.30
2022-10-26T01:19:29.095Z,2.10
2022-10-26T01:20:27.477Z,2.40
2022-10-26T01:21:29.681Z,2.30
2022-10-26T01:22:28.045Z,2.40
2022-10-26T01:23:28.383Z,3.20
2022-10-26T01:24:30.541Z,2.50
2022-10-26T01:25:28.923Z,2.00
2022-10-26T01:26:29.213Z,2.50
2022-10-26T01:27:29.524Z,2.70
2022-10-26T01:28:30.769Z,2.50
2022-10-26T01:29:32.000Z,2.60
2022-10-26T01:30:30.374Z,2.40
2022-10-26T01:31:30.701Z,2.70
2022-10-26T01:32:31.029Z,2.40
2022-10-26T01:33:31.320Z,2.50
2022-10-26T01:34:33.498Z,2.70
2022-10-26T01:35:31.879Z,2.50
2022-10-26T01:36:34.105Z,2.30
2022-10-26T01:37:32.468Z,2.50
2022-10-26T01:38:32.768Z,2.50
2022-10-26T01:39:33.081Z,2.40
2022-10-26T01:40:35.258Z,2.50
2022-10-26T01:41:35.478Z,2.60
2022-10-26T01:42:33.931Z,2.50
2022-10-26T01:43:34.241Z,2.70
2022-10-26T01:44:36.427Z,2.60
2022-10-26T01:45:34.838Z,2.50
2022-10-26T01:46:35.025Z,2.30
2022-10-26T01:47:37.198Z,2.30
2022-10-26T01:48:35.587Z,2.20
2022-10-26T01:49:37.773Z,2.70
2022-10-26T01:50:36.132Z,2.70
2022-10-26T01:51:38.296Z,2.70
2022-10-26T01:52:38.633Z,2.50
2022-10-26T01:53:36.993Z,2.40
2022-10-26T01:54:39.181Z,3.20
2022-10-26T01:55:37.557Z,2.80
2022-10-26T01:56:37.849Z,2.80
2022-10-26T01:57:38.157Z,3.10
2022-10-26T01:58:38.458Z,3.40
2022-10-26T01:59:40.652Z,2.70
2022-10-26T02:00:39.038Z,2.80
2022-10-26T02:01:39.415Z,2.50
2022-10-26T02:02:41.520Z,2.60
2022-10-26T02:03:40.005Z,2.60
2022-10-26T02:04:42.134Z,2.40
2022-10-26T02:05:40.494Z,2.70
2022-10-26T02:06:42.678Z,2.80
2022-10-26T02:07:42.925Z,2.80
2022-10-26T02:08:41.310Z,3.10
2022-10-26T02:09:41.622Z,3.40
2022-10-26T02:10:41.904Z,3.30
2022-10-26T02:11:42.197Z,2.60
2022-10-26T02:12:44.370Z,3.10
2022-10-26T02:13:44.534Z,2.60
2022-10-26T02:14:43.865Z,3.40
2022-10-26T02:15:45.020Z,3.10
2022-10-26T02:16:45.215Z,3.00
2022-10-26T02:17:45.972Z,2.70
2022-10-26T02:18:46.062Z,3.30
2022-10-26T02:19:46.257Z,3.10
2022-10-26T02:20:44.857Z,2.90
2022-10-26T02:21:47.034Z,3.30
2022-10-26T02:22:47.224Z,2.80
2022-10-26T02:23:47.407Z,3.10
2022-10-26T02:24:47.602Z,3.30
2022-10-26T02:25:48.291Z,2.80
2022-10-26T02:26:46.660Z,3.30
2022-10-26T02:27:49.051Z,2.80
2022-10-26T02:28:49.016Z,3.40
2022-10-26T02:29:49.179Z,3.10
2022-10-26T02:30:49.337Z,3.10
2022-10-26T02:31:50.039Z,3.30
2022-10-26T02:32:50.204Z,2.90
2022-10-26T02:33:50.404Z,3.10
2022-10-26T02:34:49.015Z,3.50
2022-10-26T02:35:49.320Z,2.70
2022-10-26T02:36:51.523Z,3.00
2022-10-26T02:37:50.064Z,3.30
2022-10-26T02:38:50.109Z,2.90
2022-10-26T02:39:50.409Z,3.00
2022-10-26T02:40:52.650Z,3.40
2022-10-26T02:41:51.151Z,3.00
2022-10-26T02:42:53.288Z,3.00
2022-10-26T02:43:53.479Z,3.50
2022-10-26T02:44:53.662Z,3.00
2022-10-26T02:45:53.851Z,3.50
2022-10-26T02:46:55.539Z,3.20
2022-10-26T02:47:52.827Z,3.40
2022-10-26T02:48:55.009Z,3.60
2022-10-26T02:49:55.204Z,3.60
2022-10-26T02:50:55.368Z,3.50
2022-10-26T02:51:56.571Z,3.40
2022-10-26T02:52:56.290Z,3.60
2022-10-26T02:53:56.471Z,3.00
2022-10-26T02:54:56.628Z,2.80
2022-10-26T02:55:56.794Z,3.80
2022-10-26T02:56:57.043Z,3.50
2022-10-26T02:57:57.752Z,3.60
2022-10-26T02:58:57.928Z,3.10
2022-10-26T02:59:58.232Z,2.60
2022-10-26T03:00:57.590Z,3.20
2022-10-26T03:02:00.262Z,3.40
2022-10-26T03:02:59.049Z,2.70
2022-10-26T03:03:59.260Z,3.30
2022-10-26T03:04:57.617Z,2.70
2022-10-26T03:06:01.247Z,3.20
2022-10-26T03:07:01.455Z,3.00
2022-10-26T03:07:58.472Z,3.00
2022-10-26T03:09:00.633Z,3.20
2022-10-26T03:10:00.824Z,3.40
2022-10-26T03:10:59.314Z,2.70
2022-10-26T03:12:00.679Z,3.40
2022-10-26T03:12:59.908Z,3.50
2022-10-26T03:14:00.221Z,3.30
2022-10-26T03:15:02.408Z,3.10
2022-10-26T03:16:02.605Z,3.20
2022-10-26T03:17:02.103Z,3.40
2022-10-26T03:18:01.352Z,3.70
2022-10-26T03:19:01.662Z,3.10
2022-10-26T03:20:03.859Z,3.20
2022-10-26T03:21:04.985Z,3.60
2022-10-26T03:22:03.301Z,3.40
2022-10-26T03:23:02.784Z,3.50
2022-10-26T03:24:03.081Z,3.80
2022-10-26T03:25:05.336Z,3.50
2022-10-26T03:26:05.464Z,3.30
2022-10-26T03:27:05.627Z,3.50
2022-10-26T03:28:05.246Z,3.40
2022-10-26T03:29:04.597Z,2.70
2022-10-26T03:30:04.911Z,3.50
2022-10-26T03:31:07.088Z,3.30
2022-10-26T03:32:07.496Z,2.90
2022-10-26T03:33:05.735Z,3.30
2022-10-26T03:34:06.054Z,4.10
2022-10-26T03:35:06.356Z,3.40
2022-10-26T03:36:06.665Z,3.60
2022-10-26T03:37:08.845Z,3.50
2022-10-26T03:38:07.548Z,3.50
2022-10-26T03:39:07.538Z,3.20
2022-10-26T03:40:07.856Z,3.70
2022-10-26T03:41:08.166Z,3.60
2022-10-26T03:42:10.364Z,3.50
2022-10-26T03:43:10.539Z,4.00
2022-10-26T03:44:09.048Z,3.70
2022-10-26T03:45:09.348Z,4.10
2022-10-26T03:46:09.652Z,3.80
2022-10-26T03:47:11.828Z,4.00
2022-10-26T03:48:10.327Z,3.60
2022-10-26T03:49:12.396Z,3.50
2022-10-26T03:50:10.768Z,4.00
2022-10-26T03:51:11.082Z,3.20
2022-10-26T03:52:13.282Z,3.40
2022-10-26T03:53:13.438Z,3.40
2022-10-26T03:54:13.603Z,3.30
2022-10-26T03:55:12.216Z,3.30
2022-10-26T03:56:14.411Z,3.90
2022-10-26T03:57:14.615Z,4.20
2022-10-26T03:58:13.172Z,4.10
2022-10-26T03:59:13.346Z,3.90
2022-10-26T04:00:13.644Z,4.30
2022-10-26T04:01:16.251Z,4.00
2022-10-26T04:02:16.112Z,4.50
2022-10-26T04:03:14.609Z,4.60
2022-10-26T04:04:15.987Z,4.20
2022-10-26T04:05:15.270Z,3.50
2022-10-26T04:06:17.454Z,3.80
2022-10-26T04:07:15.845Z,3.10
2022-10-26T04:08:16.149Z,3.50
2022-10-26T04:09:17.427Z,4.10
2022-10-26T04:10:18.652Z,3.90
2022-10-26T04:11:16.919Z,3.80
2022-10-26T04:12:19.111Z,3.10
2022-10-26T04:13:18.372Z,3.40
2022-10-26T04:14:18.761Z,3.40
2022-10-26T04:15:17.983Z,3.20
2022-10-26T04:16:20.172Z,3.80
2022-10-26T04:17:18.542Z,3.00
2022-10-26T04:18:20.702Z,3.40
2022-10-26T04:19:21.008Z,3.40
2022-10-26T04:20:19.396Z,3.80
2022-10-26T04:21:23.093Z,4.30
2022-10-26T04:22:21.782Z,3.50
2022-10-26T04:23:21.986Z,4.10
2022-10-26T04:24:22.449Z,3.40
2022-10-26T04:25:22.378Z,3.90
2022-10-26T04:26:23.063Z,3.40
2022-10-26T04:27:23.220Z,4.10
2022-10-26T04:28:23.393Z,3.70
2022-10-26T04:29:23.552Z,4.10
2022-10-26T04:30:24.222Z,3.80
2022-10-26T04:31:25.909Z,3.50
2022-10-26T04:32:24.569Z,4.30
2022-10-26T04:33:24.721Z,4.20
2022-10-26T04:34:25.419Z,3.70
2022-10-26T04:35:25.286Z,3.90
2022-10-26T04:36:27.495Z,4.10
2022-10-26T04:37:26.168Z,4.20
2022-10-26T04:38:26.333Z,4.10
2022-10-26T04:39:27.457Z,4.10
2022-10-26T04:40:26.741Z,3.90
2022-10-26T04:41:27.857Z,3.70
2022-10-26T04:42:27.593Z,4.30
2022-10-26T04:43:27.783Z,3.80
2022-10-26T04:44:27.980Z,3.80
2022-10-26T04:45:28.179Z,3.70
2022-10-26T04:46:28.362Z,4.10
2022-10-26T04:47:29.066Z,4.00
2022-10-26T04:48:27.329Z,3.60
2022-10-26T04:49:29.511Z,3.60
2022-10-26T04:50:28.505Z,3.40
2022-10-26T04:51:30.073Z,3.90
2022-10-26T04:52:31.728Z,3.80
2022-10-26T04:53:28.763Z,3.40
2022-10-26T04:54:32.006Z,3.30
2022-10-26T04:55:30.213Z,3.30
2022-10-26T04:56:31.628Z,3.50
2022-10-26T04:57:31.847Z,2.80
2022-10-26T04:58:32.010Z,3.70
2022-10-26T04:59:32.197Z,3.60
2022-10-26T05:00:33.900Z,2.70
2022-10-26T05:01:31.253Z,3.20
2022-10-26T05:02:33.339Z,3.50
2022-10-26T05:03:33.829Z,3.00
2022-10-26T05:04:33.695Z,3.80
2022-10-26T05:05:33.350Z,3.10
2022-10-26T05:06:32.607Z,3.50
2022-10-26T05:07:34.821Z,3.20
2022-10-26T05:08:34.997Z,3.50
2022-10-26T05:09:33.487Z,4.10
2022-10-26T05:10:37.162Z,3.70
2022-10-26T05:11:35.059Z,4.00
2022-10-26T05:12:34.287Z,3.40
2022-10-26T05:13:34.601Z,2.60
2022-10-26T05:14:34.914Z,3.30
2022-10-26T05:15:38.081Z,3.40
2022-10-26T05:16:35.479Z,3.70
2022-10-26T05:17:35.791Z,3.20
2022-10-26T05:18:36.090Z,3.70
2022-10-26T05:19:38.312Z,3.60
2022-10-26T05:20:37.558Z,3.40
2022-10-26T05:21:36.950Z,4.10
2022-10-26T05:22:37.363Z,3.70
2022-10-26T05:23:37.496Z,3.70
2022-10-26T05:24:37.812Z,3.50
2022-10-26T05:25:39.534Z,3.60
2022-10-26T05:26:38.400Z,2.80
2022-10-26T05:27:40.321Z,3.30
2022-10-26T05:28:40.503Z,3.50
2022-10-26T05:29:40.214Z,2.90
2022-10-26T05:30:42.933Z,3.50
2022-10-26T05:31:39.839Z,3.10
2022-10-26T05:32:40.131Z,2.70
2022-10-26T05:33:42.322Z,3.10
2022-10-26T05:34:41.593Z,3.30
2022-10-26T05:35:43.012Z,2.90
2022-10-26T05:36:41.277Z,2.80
2022-10-26T05:37:41.574Z,3.50
2022-10-26T05:38:42.293Z,2.90
2022-10-26T05:39:42.130Z,2.90
2022-10-26T05:40:45.786Z,3.30
2022-10-26T05:41:42.834Z,3.20
2022-10-26T05:42:42.962Z,3.20
2022-10-26T05:43:45.147Z,3.70
2022-10-26T05:44:45.300Z,3.40
2022-10-26T05:45:43.852Z,3.30
2022-10-26T05:46:44.084Z,2.70
2022-10-26T05:47:44.369Z,3.00
2022-10-26T05:48:46.562Z,3.00
2022-10-26T05:49:44.938Z,3.70
2022-10-26T05:50:48.097Z,3.60
2022-10-26T05:51:45.512Z,3.60
2022-10-26T05:52:45.825Z,3.10
2022-10-26T05:53:48.003Z,2.80
2022-10-26T05:54:48.184Z,3.00
2022-10-26T05:55:49.828Z,3.30
2022-10-26T05:56:46.986Z,3.30
2022-10-26T05:57:47.577Z,2.80
2022-10-26T05:58:47.657Z,3.00
2022-10-26T05:59:49.833Z,2.90
2022-10-26T06:00:49.063Z,3.00
2022-10-26T06:01:50.063Z,3.80
2022-10-26T06:02:50.691Z,3.90
2022-10-26T06:03:50.883Z,3.70
2022-10-26T06:04:51.066Z,3.60
2022-10-26T06:05:51.419Z,3.80
2022-10-26T06:06:51.651Z,3.80
2022-10-26T06:07:52.134Z,4.20
2022-10-26T06:08:50.515Z,3.70
2022-10-26T06:09:52.666Z,3.90
2022-10-26T06:10:53.830Z,4.20
2022-10-26T06:11:53.064Z,3.90
2022-10-26T06:12:53.247Z,3.40
2022-10-26T06:13:52.003Z,3.70
2022-10-26T06:14:52.347Z,4.50
2022-10-26T06:15:56.020Z,3.60
2022-10-26T06:16:54.759Z,3.90
2022-10-26T06:17:53.289Z,3.90
2022-10-26T06:18:55.333Z,4.10
2022-10-26T06:19:53.851Z,4.10
2022-10-26T06:20:56.990Z,3.50
2022-10-26T06:21:56.225Z,4.20
2022-10-26T06:22:54.773Z,3.90
2022-10-26T06:23:55.021Z,3.80
2022-10-26T06:24:55.332Z,3.80
2022-10-26T06:25:58.493Z,3.50
2022-10-26T06:26:57.719Z,2.50
2022-10-26T06:27:57.878Z,3.10
2022-10-26T06:28:58.048Z,3.30
2022-10-26T06:29:58.742Z,2.80
2022-10-26T06:30:59.763Z,2.90
2022-10-26T06:31:59.109Z,3.10
2022-10-26T06:33:06.001Z,3.40
2022-10-26T06:33:59.017Z,3.40
2022-10-26T06:35:02.663Z,3.30
2022-10-26T06:36:00.549Z,3.80
2022-10-26T06:37:00.392Z,3.40
2022-10-26T06:38:01.058Z,3.40
2022-10-26T06:39:01.209Z,3.40
2022-10-26T06:40:01.381Z,3.50
2022-10-26T06:41:02.374Z,2.90
2022-10-26T06:42:00.316Z,2.80
2022-10-26T06:43:02.479Z,3.00
2022-10-26T06:44:00.893Z,2.70
2022-10-26T06:45:01.273Z,3.50
2022-10-26T06:46:01.549Z,3.40
2022-10-26T06:47:03.650Z,2.90
2022-10-26T06:48:02.082Z,2.80
2022-10-26T06:49:02.412Z,2.60
2022-10-26T06:50:02.751Z,2.90
2022-10-26T06:51:03.079Z,2.70
2022-10-26T06:52:03.423Z,3.00
2022-10-26T06:53:05.588Z,2.50
2022-10-26T06:54:03.991Z,3.20
2022-10-26T06:55:06.173Z,2.60
2022-10-26T06:56:04.591Z,3.20
2022-10-26T06:57:04.823Z,3.00
2022-10-26T06:58:08.445Z,2.60
2022-10-26T06:59:07.073Z,2.80
2022-10-26T07:00:06.666Z,2.70
2022-10-26T07:01:07.888Z,2.50
2022-10-26T07:02:06.804Z,2.40
2022-10-26T07:03:06.809Z,2.70
2022-10-26T07:04:07.003Z,2.60
2022-10-26T07:05:07.230Z,3.00
2022-10-26T07:06:09.461Z,2.40
2022-10-26T07:07:07.763Z,2.60
2022-10-26T07:08:08.115Z,3.00
2022-10-26T07:09:10.292Z,2.40
2022-10-26T07:10:08.699Z,2.80
2022-10-26T07:11:10.884Z,2.20
2022-10-26T07:12:09.298Z,2.30
2022-10-26T07:13:09.642Z,2.20
2022-10-26T07:14:11.825Z,2.20
2022-10-26T07:15:10.151Z,2.30
2022-10-26T07:16:12.306Z,1.80
2022-10-26T07:17:10.582Z,1.70
2022-10-26T07:18:10.814Z,2.10
2022-10-26T07:19:12.997Z,1.50
2022-10-26T07:20:12.198Z,1.40
2022-10-26T07:21:13.597Z,1.40
2022-10-26T07:22:13.782Z,1.40
2022-10-26T07:23:13.977Z,1.30
2022-10-26T07:24:12.638Z,1.20
2022-10-26T07:25:13.001Z,1.30
2022-10-26T07:26:15.163Z,1.20
2022-10-26T07:27:15.314Z,1.00
2022-10-26T07:28:15.509Z,1.30
2022-10-26T07:29:14.035Z,1.00
2022-10-26T07:30:14.383Z,0.80
2022-10-26T07:31:16.681Z,0.80
2022-10-26T07:32:14.969Z,1.10
2022-10-26T07:33:17.150Z,0.70
2022-10-26T07:34:15.432Z,0.70
2022-10-26T07:35:17.612Z,0.60
2022-10-26T07:36:17.802Z,0.80
2022-10-26T07:37:16.315Z,0.70
2022-10-26T07:38:18.507Z,0.70
2022-10-26T07:39:16.925Z,0.70
2022-10-26T07:40:20.131Z,0.60
2022-10-26T07:41:19.357Z,0.50
2022-10-26T07:42:17.893Z,0.60
2022-10-26T07:43:18.124Z,0.70
2022-10-26T07:44:18.459Z,0.50
2022-10-26T07:45:19.525Z,0.70
2022-10-26T07:46:20.876Z,0.50
2022-10-26T07:47:19.156Z,0.40
2022-10-26T07:48:19.508Z,0.60
2022-10-26T07:49:20.008Z,0.40
2022-10-26T07:50:21.094Z,0.60
2022-10-26T07:51:22.360Z,0.50
2022-10-26T07:52:20.781Z,0.40
2022-10-26T07:53:25.280Z,0.40
2022-10-26T07:54:24.280Z,0.60
2022-10-26T07:55:21.758Z,0.40
2022-10-26T07:56:23.914Z,0.50
2022-10-26T07:57:22.210Z,0.50
2022-10-26T07:58:22.500Z,0.40
2022-10-26T07:59:22.837Z,0.40
2022-10-26T08:00:26.594Z,0.50
2022-10-26T08:01:25.411Z,0.40
2022-10-26T08:02:25.447Z,0.40
2022-10-26T08:03:25.628Z,0.60
2022-10-26T08:04:25.781Z,0.50
2022-10-26T08:05:27.490Z,0.80
2022-10-26T08:06:26.689Z,0.50
2022-10-26T08:07:26.856Z,0.40
2022-10-26T08:08:27.050Z,0.40
2022-10-26T08:09:27.700Z,0.50
2022-10-26T08:10:28.137Z,0.40
2022-10-26T08:11:28.111Z,0.70
2022-10-26T08:12:28.375Z,0.60
2022-10-26T08:13:29.033Z,0.40
2022-10-26T08:14:29.112Z,0.40
2022-10-26T08:15:30.314Z,0.50
2022-10-26T08:16:30.551Z,0.50
2022-10-26T08:17:29.739Z,0.50
2022-10-26T08:18:30.410Z,0.70
2022-10-26T08:19:30.598Z,0.50
2022-10-26T08:20:32.243Z,0.50
2022-10-26T08:21:46.138Z,0.50
2022-10-26T08:22:32.645Z,0.60
2022-10-26T08:23:31.822Z,0.40
2022-10-26T08:24:32.015Z,0.50
2022-10-26T08:25:32.186Z,0.40
2022-10-26T08:26:32.346Z,0.60
2022-10-26T08:27:33.023Z,0.60
2022-10-26T08:28:33.213Z,0.40
2022-10-26T08:29:31.843Z,0.60
2022-10-26T08:30:32.868Z,0.60
2022-10-26T08:31:34.243Z,0.40
2022-10-26T08:32:32.650Z,0.50
2022-10-26T08:33:32.872Z,0.50
2022-10-26T08:34:35.033Z,0.40
2022-10-26T08:35:35.218Z,0.60
2022-10-26T08:36:35.427Z,0.80
2022-10-26T08:37:34.073Z,0.70
2022-10-26T08:38:36.263Z,0.40
2022-10-26T08:39:36.451Z,0.40
2022-10-26T08:40:37.639Z,0.60
2022-10-26T08:41:36.867Z,0.60
2022-10-26T08:42:37.526Z,0.50
2022-10-26T08:43:37.686Z,0.40
2022-10-26T08:44:37.852Z,0.50
2022-10-26T08:45:39.085Z,0.60
2022-10-26T08:46:38.311Z,0.50
2022-10-26T08:47:38.489Z,0.70
2022-10-26T08:48:38.671Z,1.00
2022-10-26T08:49:39.349Z,0.40
2022-10-26T08:50:42.007Z,0.50
2022-10-26T08:51:39.693Z,0.40
2022-10-26T08:52:38.371Z,0.90
2022-10-26T08:53:38.603Z,0.50
2022-10-26T08:54:38.947Z,0.60
2022-10-26T08:56:41.332Z,0.40
2022-10-26T08:57:39.746Z,0.40
2022-10-26T08:58:40.091Z,0.60
2022-10-26T08:59:40.437Z,0.50
2022-10-26T09:00:44.134Z,0.60
2022-10-26T09:01:41.164Z,0.50
2022-10-26T09:02:41.402Z,1.10
2022-10-26T09:03:41.632Z,0.50
2022-10-26T09:04:43.824Z,0.60
2022-10-26T09:05:44.006Z,0.40
2022-10-26T09:06:42.420Z,0.50
2022-10-26T09:07:42.770Z,0.40
2022-10-26T09:08:43.112Z,0.60
2022-10-26T09:09:43.446Z,0.60
2022-10-26T09:10:47.124Z,0.40
2022-10-26T09:11:45.845Z,0.80
2022-10-26T09:12:44.384Z,0.50
2022-10-26T09:13:44.610Z,0.50
2022-10-26T09:14:46.794Z,0.50
2022-10-26T09:15:45.162Z,0.40
2022-10-26T09:16:46.335Z,0.40
2022-10-26T09:17:46.535Z,0.60
2022-10-26T09:19:48.134Z,0.50
2022-10-26T09:20:48.040Z,0.50
2022-10-26T09:21:48.764Z,0.60
2022-10-26T09:22:47.226Z,1.00
2022-10-26T09:23:47.297Z,0.40
2022-10-26T09:24:47.516Z,0.50
2022-10-26T09:25:50.691Z,0.50
2022-10-26T09:26:49.913Z,0.50
2022-10-26T09:27:48.795Z,0.60
2022-10-26T09:28:48.762Z,0.40
2022-10-26T09:29:49.005Z,0.40
2022-10-26T09:30:49.229Z,0.60
2022-10-26T09:31:51.407Z,0.40
2022-10-26T09:32:49.825Z,0.40
2022-10-26T09:33:50.066Z,0.40
2022-10-26T09:34:50.300Z,0.80
2022-10-26T09:35:51.462Z,0.50
2022-10-26T09:36:52.707Z,0.40
2022-10-26T09:37:51.237Z,0.40
2022-10-26T09:38:51.319Z,0.50
2022-10-26T09:39:51.666Z,0.60
2022-10-26T09:40:52.780Z,0.40
2022-10-26T09:41:52.178Z,0.60
2022-10-26T09:42:54.355Z,0.60
2022-10-26T09:43:54.552Z,0.50
2022-10-26T09:44:54.729Z,0.40
2022-10-26T09:45:55.880Z,1.40
2022-10-26T09:46:53.632Z,0.40
2022-10-26T09:47:55.769Z,0.50
2022-10-26T09:48:54.126Z,0.40
2022-10-26T09:49:54.345Z,0.50
2022-10-26T09:51:00.405Z,0.40
2022-10-26T09:51:57.764Z,0.40
2022-10-26T09:52:55.308Z,0.50
2022-10-26T09:53:57.506Z,0.30
2022-10-26T09:54:55.910Z,0.60
2022-10-26T09:55:59.066Z,0.40
2022-10-26T09:56:58.289Z,0.40
2022-10-26T09:57:58.463Z,0.40
2022-10-26T09:58:58.608Z,0.50
2022-10-26T09:59:59.311Z,1.60
2022-10-26T10:01:00.533Z,0.80
2022-10-26T10:01:59.768Z,0.50
2022-10-26T10:02:59.915Z,0.30
2022-10-26T10:04:00.544Z,0.40
2022-10-26T10:05:00.692Z,0.40
2022-10-26T10:06:00.883Z,0.30
2022-10-26T10:06:59.426Z,0.30
2022-10-26T10:08:01.602Z,0.40
2022-10-26T10:09:00.022Z,0.40
2022-10-26T10:10:02.200Z,0.40
2022-10-26T10:11:02.368Z,0.40
2022-10-26T10:12:02.556Z,0.40
2022-10-26T10:13:02.709Z,0.40
2022-10-26T10:14:03.397Z,0.40
2022-10-26T10:15:01.703Z,0.70
2022-10-26T10:16:03.097Z,0.90
2022-10-26T10:17:04.233Z,0.40
2022-10-26T10:18:04.383Z,0.90
2022-10-26T10:19:04.565Z,0.40
2022-10-26T10:20:04.747Z,0.70
2022-10-26T10:21:03.421Z,0.60
2022-10-26T10:22:05.598Z,0.40
2022-10-26T10:23:05.774Z,0.40
2022-10-26T10:24:05.957Z,0.40
2022-10-26T10:25:06.139Z,0.40
2022-10-26T10:26:04.816Z,0.40
2022-10-26T10:27:06.992Z,0.50
2022-10-26T10:28:07.170Z,0.40
2022-10-26T10:29:05.583Z,0.50
2022-10-26T10:30:07.758Z,0.50
2022-10-26T10:31:07.996Z,0.40
2022-10-26T10:32:08.121Z,1.40
2022-10-26T10:33:06.777Z,0.40
2022-10-26T10:34:07.126Z,0.30
2022-10-26T10:35:09.306Z,0.40
2022-10-26T10:36:09.493Z,1.40
2022-10-26T10:37:09.670Z,1.10
2022-10-26T10:38:08.331Z,0.40
2022-10-26T10:39:08.682Z,0.30
2022-10-26T10:40:08.919Z,0.40
2022-10-26T10:41:12.610Z,0.40
2022-10-26T10:42:09.417Z,1.20
2022-10-26T10:43:11.567Z,0.70
2022-10-26T10:44:11.731Z,0.70
2022-10-26T10:45:11.908Z,0.80
2022-10-26T10:46:12.092Z,0.80
2022-10-26T10:47:12.771Z,0.50
2022-10-26T10:48:12.964Z,0.40
2022-10-26T10:49:13.108Z,0.50
2022-10-26T10:50:13.278Z,0.50
2022-10-26T10:51:13.950Z,0.30
2022-10-26T10:52:12.373Z,0.30
2022-10-26T10:53:14.556Z,0.40
2022-10-26T10:54:12.861Z,0.30
2022-10-26T10:55:15.081Z,0.40
2022-10-26T10:56:15.255Z,0.40
2022-10-26T10:57:13.794Z,0.50
2022-10-26T10:58:16.045Z,1.20
2022-10-26T10:59:14.382Z,0.30
2022-10-26T11:00:14.706Z,0.30
2022-10-26T11:01:16.981Z,0.40
2022-10-26T11:02:15.264Z,0.20
2022-10-26T11:03:15.466Z,0.50
2022-10-26T11:04:17.648Z,0.30
2022-10-26T11:05:16.087Z,0.40
2022-10-26T11:06:19.690Z,0.30
2022-10-26T11:07:18.416Z,0.40
2022-10-26T11:08:18.598Z,0.30
2022-10-26T11:09:18.752Z,0.30
2022-10-26T11:10:18.541Z,0.30
2022-10-26T11:11:19.693Z,0.60
2022-10-26T11:12:18.127Z,0.20
2022-10-26T11:13:20.306Z,0.30
2022-10-26T11:14:18.601Z,0.50
2022-10-26T11:15:19.851Z,0.40
2022-10-26T11:16:19.128Z,0.20
2022-10-26T11:17:19.357Z,0.40
2022-10-26T11:18:21.551Z,0.30
2022-10-26T11:19:19.835Z,0.30
2022-10-26T11:20:23.024Z,0.30
2022-10-26T11:21:21.461Z,0.50
2022-10-26T11:22:20.742Z,0.20
2022-10-26T11:23:22.917Z,0.30
2022-10-26T11:24:21.231Z,0.20
2022-10-26T11:25:24.881Z,0.40
2022-10-26T11:26:21.702Z,0.80
2022-10-26T11:27:21.933Z,0.50
2022-10-26T11:28:24.105Z,0.30
2022-10-26T11:29:22.395Z,0.30
2022-10-26T11:30:22.715Z,0.20
2022-10-26T11:31:24.845Z,0.60
2022-10-26T11:32:23.286Z,0.50
2022-10-26T11:33:25.461Z,0.30
2022-10-26T11:34:23.774Z,0.30
2022-10-26T11:35:23.997Z,0.30
2022-10-26T11:36:26.186Z,0.30
2022-10-26T11:37:26.356Z,0.40
2022-10-26T11:38:38.913Z,0.30
2022-10-26T11:39:26.207Z,0.30
2022-10-26T11:40:25.657Z,0.40
2022-10-26T11:41:25.733Z,0.30
2022-10-26T11:42:26.087Z,0.20
2022-10-26T11:43:26.312Z,0.20
2022-10-26T11:44:28.503Z,0.50
2022-10-26T11:45:26.805Z,0.20
2022-10-26T11:46:29.000Z,0.30
2022-10-26T11:47:29.179Z,0.40
2022-10-26T11:48:27.728Z,0.20
2022-10-26T11:49:27.967Z,0.20
2022-10-26T11:50:28.339Z,0.40
2022-10-26T11:51:29.595Z,0.20
2022-10-26T11:52:29.787Z,0.20
2022-10-26T11:53:30.969Z,0.20
2022-10-26T11:54:31.132Z,0.30
2022-10-26T11:55:30.597Z,0.60
2022-10-26T11:56:32.031Z,0.20
2022-10-26T11:57:32.199Z,0.20
2022-10-26T11:58:32.392Z,0.30
2022-10-26T11:59:33.548Z,0.30
2022-10-26T12:00:32.257Z,0.30
2022-10-26T12:01:32.618Z,0.40
2022-10-26T12:02:33.854Z,0.40
2022-10-26T12:03:32.171Z,0.20
2022-10-26T12:04:32.413Z,0.20
2022-10-26T12:05:36.055Z,0.20
2022-10-26T12:06:32.876Z,0.40
2022-10-26T12:07:33.116Z,0.30
2022-10-26T12:08:34.353Z,0.30
2022-10-26T12:09:35.669Z,0.40
2022-10-26T12:10:36.921Z,0.30
2022-10-26T12:11:35.306Z,0.50
2022-10-26T12:12:37.107Z,0.30
2022-10-26T12:13:34.834Z,0.30
2022-10-26T12:14:37.021Z,0.20
2022-10-26T12:16:01.635Z,0.30
2022-10-26T12:16:36.651Z,0.30
2022-10-26T12:17:38.833Z,0.20
2022-10-26T12:18:54.506Z,0.40
2022-10-26T12:19:39.200Z,0.50
2022-10-26T12:20:38.363Z,0.20
2022-10-26T12:21:38.666Z,0.20
2022-10-26T12:22:39.257Z,0.30
2022-10-26T12:23:40.890Z,0.20
2022-10-26T12:24:40.606Z,0.40
2022-10-26T12:25:40.762Z,0.50
2022-10-26T12:26:40.036Z,0.30
2022-10-26T12:27:40.742Z,0.40
2022-10-26T12:28:40.868Z,0.20
2022-10-26T12:29:41.044Z,0.30
2022-10-26T12:30:39.603Z,0.20
2022-10-26T12:31:41.785Z,0.30
2022-10-26T12:32:43.853Z,0.20
2022-10-26T12:33:42.107Z,0.20
2022-10-26T12:34:42.456Z,0.40
2022-10-26T12:35:42.002Z,0.30
2022-10-26T12:36:43.246Z,0.20
2022-10-26T12:37:41.539Z,1.00
2022-10-26T12:38:41.768Z,0.50
2022-10-26T12:39:43.952Z,0.20
2022-10-26T12:40:42.310Z,0.60
2022-10-26T12:41:44.442Z,0.20
2022-10-26T12:42:42.880Z,0.30
2022-10-26T12:43:46.083Z,0.40
2022-10-26T12:44:43.423Z,0.20
2022-10-26T12:45:45.599Z,0.20
2022-10-26T12:46:43.891Z,0.20
2022-10-26T12:47:44.128Z,0.20
2022-10-26T12:48:44.483Z,0.50
2022-10-26T12:49:46.646Z,0.40
2022-10-26T12:50:46.830Z,0.40
2022-10-26T12:51:47.015Z,0.30
2022-10-26T12:52:47.489Z,0.20
2022-10-26T12:53:47.392Z,0.30
2022-10-26T12:54:48.073Z,0.30
2022-10-26T12:55:48.410Z,0.20
2022-10-26T12:56:48.447Z,0.30
2022-10-26T12:57:49.115Z,0.30
2022-10-26T12:58:49.295Z,0.20
2022-10-26T12:59:47.733Z,0.50
2022-10-26T13:00:48.058Z,0.50
2022-10-26T13:02:48.783Z,0.20
2022-10-26T13:03:50.736Z,0.30
2022-10-26T13:04:49.174Z,0.20
2022-10-26T13:05:51.312Z,0.30
2022-10-26T13:06:49.633Z,0.20
2022-10-26T13:07:51.814Z,0.40
2022-10-26T13:08:56.227Z,0.30
2022-10-26T13:09:51.441Z,0.30
2022-10-26T13:10:51.696Z,0.40
2022-10-26T13:11:50.986Z,0.50
2022-10-26T13:12:51.635Z,0.60
2022-10-26T13:13:53.412Z,0.30
2022-10-26T13:14:51.718Z,0.10
2022-10-26T13:15:52.013Z,0.20
2022-10-26T13:16:52.254Z,0.30
2022-10-26T13:17:52.482Z,0.30
2022-10-26T13:18:54.666Z,0.30
2022-10-26T13:19:52.969Z,0.30
2022-10-26T13:20:56.626Z,0.40
2022-10-26T13:21:53.574Z,0.30
2022-10-26T13:22:54.368Z,0.20
2022-10-26T13:23:54.092Z,0.30
2022-10-26T13:24:56.284Z,0.30